sensor_id;sensor_type;location;lat;lon;timestamp;pressure;altitude;pressure_sealevel;temperature;humidity
73453;BME280;61687;56.232;43.854;2023-09-30T00:01:59;101247.28;;;12.02;79.49
73453;BME280;61687;56.232;43.854;2023-09-30T00:04:25;101248.69;;;12.12;79.27
73453;BME280;61687;56.232;43.854;2023-09-30T00:06:53;101239.56;;;12.24;78.61
73453;BME280;61687;56.232;43.854;2023-09-30T00:09:19;101240.16;;;12.34;78.33
73453;BME280;61687;56.232;43.854;2023-09-30T00:11:45;101231.28;;;12.40;78.15
73453;BME280;61687;56.232;43.854;2023-09-30T00:14:10;101234.63;;;12.50;77.89
73453;BME280;61687;56.232;43.854;2023-09-30T00:16:36;101231.25;;;12.56;77.76
73453;BME280;61687;56.232;43.854;2023-09-30T00:19:02;101225.47;;;12.62;77.70
73453;BME280;61687;56.232;43.854;2023-09-30T00:21:29;101226.81;;;12.68;77.61
73453;BME280;61687;56.232;43.854;2023-09-30T00:23:55;101232.38;;;12.71;77.49
73453;BME280;61687;56.232;43.854;2023-09-30T00:26:21;101224.41;;;12.66;77.83
73453;BME280;61687;56.232;43.854;2023-09-30T00:28:48;101231.59;;;12.71;77.87
73453;BME280;61687;56.232;43.854;2023-09-30T00:31:13;101224.63;;;12.77;77.64
73453;BME280;61687;56.232;43.854;2023-09-30T00:33:39;101212.13;;;12.80;77.59
73453;BME280;61687;56.232;43.854;2023-09-30T00:36:09;101218.50;;;12.84;77.49
73453;BME280;61687;56.232;43.854;2023-09-30T00:38:36;101220.94;;;12.89;77.50
73453;BME280;61687;56.232;43.854;2023-09-30T00:41:03;101219.53;;;12.95;77.33
73453;BME280;61687;56.232;43.854;2023-09-30T00:43:29;101227.50;;;13.00;77.21
73453;BME280;61687;56.232;43.854;2023-09-30T00:46:02;101226.75;;;13.03;77.10
73453;BME280;61687;56.232;43.854;2023-09-30T00:48:32;101222.13;;;13.08;77.11
73453;BME280;61687;56.232;43.854;2023-09-30T00:50:59;101218.28;;;13.12;76.85
73453;BME280;61687;56.232;43.854;2023-09-30T00:53:25;101221.56;;;13.18;76.85
73453;BME280;61687;56.232;43.854;2023-09-30T00:55:52;101224.75;;;13.20;76.63
73453;BME280;61687;56.232;43.854;2023-09-30T00:58:20;101226.38;;;13.25;76.36
73453;BME280;61687;56.232;43.854;2023-09-30T01:00:46;101219.34;;;13.27;76.33
73453;BME280;61687;56.232;43.854;2023-09-30T01:03:12;101217.78;;;13.26;76.30
73453;BME280;61687;56.232;43.854;2023-09-30T01:05:38;101216.41;;;13.16;76.58
73453;BME280;61687;56.232;43.854;2023-09-30T01:08:04;101213.13;;;13.11;76.61
73453;BME280;61687;56.232;43.854;2023-09-30T01:10:30;101219.81;;;13.10;76.61
73453;BME280;61687;56.232;43.854;2023-09-30T01:12:56;101208.44;;;13.11;76.17
73453;BME280;61687;56.232;43.854;2023-09-30T01:15:23;101205.59;;;13.08;76.08
73453;BME280;61687;56.232;43.854;2023-09-30T01:17:49;101202.34;;;13.02;76.11
73453;BME280;61687;56.232;43.854;2023-09-30T01:20:15;101207.84;;;13.02;76.20
73453;BME280;61687;56.232;43.854;2023-09-30T01:22:45;101205.38;;;12.97;76.26
73453;BME280;61687;56.232;43.854;2023-09-30T01:25:11;101202.56;;;12.93;76.35
73453;BME280;61687;56.232;43.854;2023-09-30T01:27:37;101200.53;;;12.90;76.33
73453;BME280;61687;56.232;43.854;2023-09-30T01:30:03;101197.00;;;12.90;76.25
73453;BME280;61687;56.232;43.854;2023-09-30T01:32:30;101199.88;;;12.97;76.18
73453;BME280;61687;56.232;43.854;2023-09-30T01:34:56;101196.41;;;13.00;75.91
73453;BME280;61687;56.232;43.854;2023-09-30T01:37:22;101203.25;;;13.06;75.65
73453;BME280;61687;56.232;43.854;2023-09-30T01:39:47;101199.81;;;13.13;75.53
73453;BME280;61687;56.232;43.854;2023-09-30T01:42:16;101200.31;;;13.19;75.38
73453;BME280;61687;56.232;43.854;2023-09-30T01:44:41;101195.31;;;13.24;74.98
73453;BME280;61687;56.232;43.854;2023-09-30T01:47:07;101201.69;;;13.28;74.87
73453;BME280;61687;56.232;43.854;2023-09-30T01:49:33;101188.78;;;13.32;74.90
73453;BME280;61687;56.232;43.854;2023-09-30T01:51:59;101189.22;;;13.35;75.14
73453;BME280;61687;56.232;43.854;2023-09-30T01:54:25;101188.00;;;13.32;75.12
73453;BME280;61687;56.232;43.854;2023-09-30T01:56:50;101185.66;;;13.34;75.17
73453;BME280;61687;56.232;43.854;2023-09-30T01:59:17;101182.50;;;13.32;75.10
73453;BME280;61687;56.232;43.854;2023-09-30T02:01:43;101177.78;;;13.32;75.14
73453;BME280;61687;56.232;43.854;2023-09-30T02:04:12;101181.69;;;13.31;74.98
73453;BME280;61687;56.232;43.854;2023-09-30T02:06:41;101176.47;;;13.26;75.23
73453;BME280;61687;56.232;43.854;2023-09-30T02:09:07;101179.22;;;13.26;75.30
73453;BME280;61687;56.232;43.854;2023-09-30T02:11:37;101175.25;;;13.24;75.28
73453;BME280;61687;56.232;43.854;2023-09-30T02:14:03;101183.06;;;13.22;75.43
73453;BME280;61687;56.232;43.854;2023-09-30T02:16:31;101180.69;;;13.20;75.31
73453;BME280;61687;56.232;43.854;2023-09-30T02:18:58;101180.69;;;13.20;75.22
73453;BME280;61687;56.232;43.854;2023-09-30T02:21:23;101177.94;;;13.20;75.10
73453;BME280;61687;56.232;43.854;2023-09-30T02:23:49;101177.88;;;13.16;75.09
73453;BME280;61687;56.232;43.854;2023-09-30T02:26:21;101182.88;;;13.11;75.24
73453;BME280;61687;56.232;43.854;2023-09-30T02:28:48;101179.69;;;13.09;75.24
73453;BME280;61687;56.232;43.854;2023-09-30T02:31:13;101178.00;;;13.04;75.43
73453;BME280;61687;56.232;43.854;2023-09-30T02:33:39;101170.13;;;13.02;75.38
73453;BME280;61687;56.232;43.854;2023-09-30T02:36:08;101170.13;;;13.02;75.48
73453;BME280;61687;56.232;43.854;2023-09-30T02:38:35;101168.59;;;13.05;75.32
73453;BME280;61687;56.232;43.854;2023-09-30T02:41:03;101164.72;;;13.06;75.31
73453;BME280;61687;56.232;43.854;2023-09-30T02:43:29;101166.66;;;13.06;75.44
73453;BME280;61687;56.232;43.854;2023-09-30T02:45:55;101167.81;;;13.05;75.47
73453;BME280;61687;56.232;43.854;2023-09-30T02:48:21;101164.63;;;13.02;75.65
73453;BME280;61687;56.232;43.854;2023-09-30T02:50:47;101157.47;;;12.98;75.69
73453;BME280;61687;56.232;43.854;2023-09-30T02:53:13;101155.09;;;12.96;75.65
73453;BME280;61687;56.232;43.854;2023-09-30T02:55:42;101152.69;;;12.95;75.68
73453;BME280;61687;56.232;43.854;2023-09-30T02:58:10;101151.53;;;12.96;75.55
73453;BME280;61687;56.232;43.854;2023-09-30T03:00:37;101148.03;;;12.99;75.32
73453;BME280;61687;56.232;43.854;2023-09-30T03:03:03;101148.47;;;13.01;75.09
73453;BME280;61687;56.232;43.854;2023-09-30T03:05:30;101141.81;;;13.02;74.83
73453;BME280;61687;56.232;43.854;2023-09-30T03:07:59;101144.56;;;13.02;74.71
73453;BME280;61687;56.232;43.854;2023-09-30T03:10:26;101144.28;;;13.07;74.69
73453;BME280;61687;56.232;43.854;2023-09-30T03:12:56;101145.50;;;13.10;74.36
73453;BME280;61687;56.232;43.854;2023-09-30T03:15:22;101142.81;;;13.13;74.30
73453;BME280;61687;56.232;43.854;2023-09-30T03:17:48;101146.00;;;13.15;74.25
73453;BME280;61687;56.232;43.854;2023-09-30T03:20:15;101138.91;;;13.14;74.28
73453;BME280;61687;56.232;43.854;2023-09-30T03:22:44;101145.66;;;13.17;74.13
73453;BME280;61687;56.232;43.854;2023-09-30T03:25:15;101140.19;;;13.21;74.18
73453;BME280;61687;56.232;43.854;2023-09-30T03:27:45;101144.19;;;13.23;74.12
73453;BME280;61687;56.232;43.854;2023-09-30T03:30:17;101150.13;;;13.25;74.14
73453;BME280;61687;56.232;43.854;2023-09-30T03:32:45;101144.69;;;13.29;74.22
73453;BME280;61687;56.232;43.854;2023-09-30T03:35:12;101145.91;;;13.31;74.21
73453;BME280;61687;56.232;43.854;2023-09-30T03:37:44;101147.13;;;13.34;74.42
73453;BME280;61687;56.232;43.854;2023-09-30T03:40:11;101146.03;;;13.39;74.13
73453;BME280;61687;56.232;43.854;2023-09-30T03:42:45;101144.28;;;13.50;73.67
73453;BME280;61687;56.232;43.854;2023-09-30T03:45:11;101145.22;;;13.58;73.20
73453;BME280;61687;56.232;43.854;2023-09-30T03:47:40;101139.44;;;13.67;73.08
73453;BME280;61687;56.232;43.854;2023-09-30T03:50:07;101147.81;;;13.74;73.00
73453;BME280;61687;56.232;43.854;2023-09-30T03:52:40;101137.28;;;13.80;72.81
73453;BME280;61687;56.232;43.854;2023-09-30T03:55:12;101136.63;;;13.86;72.57
73453;BME280;61687;56.232;43.854;2023-09-30T03:57:39;101140.56;;;13.89;72.59
73453;BME280;61687;56.232;43.854;2023-09-30T04:00:06;101141.44;;;13.93;72.24
73453;BME280;61687;56.232;43.854;2023-09-30T04:02:37;101136.41;;;13.99;71.63
73453;BME280;61687;56.232;43.854;2023-09-30T04:05:04;101135.72;;;14.06;71.11
73453;BME280;61687;56.232;43.854;2023-09-30T04:07:31;101128.75;;;14.12;70.97
73453;BME280;61687;56.232;43.854;2023-09-30T04:09:58;101133.50;;;14.15;70.85
73453;BME280;61687;56.232;43.854;2023-09-30T04:12:26;101135.88;;;14.16;70.69
73453;BME280;61687;56.232;43.854;2023-09-30T04:14:52;101142.22;;;14.21;70.45
73453;BME280;61687;56.232;43.854;2023-09-30T04:17:19;101128.16;;;14.29;70.35
73453;BME280;61687;56.232;43.854;2023-09-30T04:19:45;101134.22;;;14.39;70.16
73453;BME280;61687;56.232;43.854;2023-09-30T04:22:12;101138.66;;;14.47;69.92
73453;BME280;61687;56.232;43.854;2023-09-30T04:24:38;101129.31;;;14.55;69.61
73453;BME280;61687;56.232;43.854;2023-09-30T04:27:04;101138.44;;;14.63;69.37
73453;BME280;61687;56.232;43.854;2023-09-30T04:29:33;101123.13;;;14.66;69.08
73453;BME280;61687;56.232;43.854;2023-09-30T04:32:00;101128.34;;;14.71;69.08
73453;BME280;61687;56.232;43.854;2023-09-30T04:34:26;101121.63;;;14.72;69.00
73453;BME280;61687;56.232;43.854;2023-09-30T04:36:53;101120.56;;;14.80;68.95
73453;BME280;61687;56.232;43.854;2023-09-30T04:39:20;101123.78;;;14.86;68.98
73453;BME280;61687;56.232;43.854;2023-09-30T04:41:45;101121.06;;;14.90;68.69
73453;BME280;61687;56.232;43.854;2023-09-30T04:44:12;101119.88;;;14.91;68.45
73453;BME280;61687;56.232;43.854;2023-09-30T04:46:38;101122.66;;;14.91;68.21
73453;BME280;61687;56.232;43.854;2023-09-30T04:49:14;101116.78;;;14.96;67.83
73453;BME280;61687;56.232;43.854;2023-09-30T04:51:41;101133.34;;;14.96;67.75
73453;BME280;61687;56.232;43.854;2023-09-30T04:54:06;101123.47;;;14.95;67.91
73453;BME280;61687;56.232;43.854;2023-09-30T04:56:34;101119.09;;;14.90;68.14
73453;BME280;61687;56.232;43.854;2023-09-30T04:59:01;101117.41;;;14.82;68.52
73453;BME280;61687;56.232;43.854;2023-09-30T05:01:28;101121.28;;;14.73;68.57
73453;BME280;61687;56.232;43.854;2023-09-30T05:03:53;101118.44;;;14.70;68.45
73453;BME280;61687;56.232;43.854;2023-09-30T05:06:19;101121.63;;;14.72;68.31
73453;BME280;61687;56.232;43.854;2023-09-30T05:08:47;101121.34;;;14.77;68.35
73453;BME280;61687;56.232;43.854;2023-09-30T05:11:13;101128.03;;;14.80;68.42
73453;BME280;61687;56.232;43.854;2023-09-30T05:13:39;101118.66;;;14.84;68.09
73453;BME280;61687;56.232;43.854;2023-09-30T05:16:05;101127.81;;;14.92;68.01
73453;BME280;61687;56.232;43.854;2023-09-30T05:18:33;101131.34;;;14.93;67.88
73453;BME280;61687;56.232;43.854;2023-09-30T05:20:59;101125.91;;;15.00;67.68
73453;BME280;61687;56.232;43.854;2023-09-30T05:23:25;101119.69;;;15.10;67.61
73453;BME280;61687;56.232;43.854;2023-09-30T05:25:51;101130.13;;;15.28;67.09
73453;BME280;61687;56.232;43.854;2023-09-30T05:28:20;101123.19;;;15.45;66.61
73453;BME280;61687;56.232;43.854;2023-09-30T05:30:46;101124.84;;;15.57;65.94
73453;BME280;61687;56.232;43.854;2023-09-30T05:33:12;101121.00;;;15.69;65.94
73453;BME280;61687;56.232;43.854;2023-09-30T05:35:46;101127.00;;;15.78;65.68
73453;BME280;61687;56.232;43.854;2023-09-30T05:38:15;101126.28;;;15.85;65.38
73453;BME280;61687;56.232;43.854;2023-09-30T05:40:42;101122.75;;;15.88;65.03
73453;BME280;61687;56.232;43.854;2023-09-30T05:43:08;101122.03;;;15.95;64.78
73453;BME280;61687;56.232;43.854;2023-09-30T05:45:34;101120.06;;;15.99;64.70
73453;BME280;61687;56.232;43.854;2023-09-30T05:48:02;101116.56;;;16.06;64.37
73453;BME280;61687;56.232;43.854;2023-09-30T05:50:32;101112.25;;;16.12;64.16
73453;BME280;61687;56.232;43.854;2023-09-30T05:52:59;101107.94;;;16.18;64.14
73453;BME280;61687;56.232;43.854;2023-09-30T05:55:25;101111.50;;;16.22;64.20
73453;BME280;61687;56.232;43.854;2023-09-30T05:57:51;101116.69;;;16.27;64.47
73453;BME280;61687;56.232;43.854;2023-09-30T06:00:18;101114.34;;;16.29;64.68
73453;BME280;61687;56.232;43.854;2023-09-30T06:02:57;101111.16;;;16.27;64.76
73453;BME280;61687;56.232;43.854;2023-09-30T06:05:23;101110.75;;;16.29;64.78
73453;BME280;61687;56.232;43.854;2023-09-30T06:07:51;101096.19;;;16.36;64.69
73453;BME280;61687;56.232;43.854;2023-09-30T06:10:17;101089.84;;;16.39;64.34
73453;BME280;61687;56.232;43.854;2023-09-30T06:12:47;101096.19;;;16.43;64.38
73453;BME280;61687;56.232;43.854;2023-09-30T06:15:16;101089.13;;;16.49;64.33
73453;BME280;61687;56.232;43.854;2023-09-30T06:17:45;101077.69;;;16.58;64.14
73453;BME280;61687;56.232;43.854;2023-09-30T06:20:11;101085.22;;;16.65;64.06
73453;BME280;61687;56.232;43.854;2023-09-30T06:22:45;101076.53;;;16.70;64.03
73453;BME280;61687;56.232;43.854;2023-09-30T06:25:12;101082.91;;;16.78;64.07
73453;BME280;61687;56.232;43.854;2023-09-30T06:27:38;101079.34;;;16.84;64.43
73453;BME280;61687;56.232;43.854;2023-09-30T06:30:05;101073.44;;;16.90;64.23
73453;BME280;61687;56.232;43.854;2023-09-30T06:32:31;101069.13;;;16.99;64.17
73453;BME280;61687;56.232;43.854;2023-09-30T06:34:57;101073.50;;;17.11;63.98
73453;BME280;61687;56.232;43.854;2023-09-30T06:37:22;101064.00;;;17.20;63.81
73453;BME280;61687;56.232;43.854;2023-09-30T06:39:48;101072.69;;;17.29;63.43
73453;BME280;61687;56.232;43.854;2023-09-30T06:42:15;101069.16;;;17.32;63.36
73453;BME280;61687;56.232;43.854;2023-09-30T06:44:41;101067.56;;;17.38;63.12
73453;BME280;61687;56.232;43.854;2023-09-30T06:47:06;101062.03;;;17.38;63.34
73453;BME280;61687;56.232;43.854;2023-09-30T06:49:35;101069.94;;;17.40;63.28
73453;BME280;61687;56.232;43.854;2023-09-30T06:52:00;101070.31;;;17.45;63.27
73453;BME280;61687;56.232;43.854;2023-09-30T06:54:28;101070.34;;;17.53;63.24
73453;BME280;61687;56.232;43.854;2023-09-30T06:56:54;101066.34;;;17.57;63.03
73453;BME280;61687;56.232;43.854;2023-09-30T06:59:20;101062.41;;;17.62;63.12
73453;BME280;61687;56.232;43.854;2023-09-30T07:01:46;101058.44;;;17.67;63.08
73453;BME280;61687;56.232;43.854;2023-09-30T07:04:12;101060.81;;;17.72;63.08
73453;BME280;61687;56.232;43.854;2023-09-30T07:06:37;101060.00;;;17.79;62.97
73453;BME280;61687;56.232;43.854;2023-09-30T07:09:03;101054.44;;;17.82;62.98
73453;BME280;61687;56.232;43.854;2023-09-30T07:11:30;101058.00;;;17.86;62.97
73453;BME280;61687;56.232;43.854;2023-09-30T07:13:58;101063.16;;;17.92;62.44
73453;BME280;61687;56.232;43.854;2023-09-30T07:16:24;101060.72;;;18.01;62.76
73453;BME280;61687;56.232;43.854;2023-09-30T07:18:50;101059.56;;;18.09;62.26
73453;BME280;61687;56.232;43.854;2023-09-30T07:21:16;101053.59;;;18.18;62.19
73453;BME280;61687;56.232;43.854;2023-09-30T07:23:42;101062.25;;;18.27;61.85
73453;BME280;61687;56.232;43.854;2023-09-30T07:26:08;101054.69;;;18.39;61.83
73453;BME280;61687;56.232;43.854;2023-09-30T07:28:33;101056.63;;;18.49;61.33
73453;BME280;61687;56.232;43.854;2023-09-30T07:30:59;101056.19;;;18.58;61.16
73453;BME280;61687;56.232;43.854;2023-09-30T07:33:25;101058.91;;;18.65;60.71
73453;BME280;61687;56.232;43.854;2023-09-30T07:35:51;101060.41;;;18.81;60.92
73453;BME280;61687;56.232;43.854;2023-09-30T07:38:17;101054.41;;;18.90;60.44
73453;BME280;61687;56.232;43.854;2023-09-30T07:40:43;101056.34;;;18.96;60.30
73453;BME280;61687;56.232;43.854;2023-09-30T07:43:10;101051.56;;;18.97;60.30
73453;BME280;61687;56.232;43.854;2023-09-30T07:45:36;101050.75;;;19.04;60.12
73453;BME280;61687;56.232;43.854;2023-09-30T07:48:02;101049.53;;;19.12;60.00
73453;BME280;61687;56.232;43.854;2023-09-30T07:50:31;101045.09;;;19.18;59.91
73453;BME280;61687;56.232;43.854;2023-09-30T07:52:57;101038.69;;;19.25;59.65
73453;BME280;61687;56.232;43.854;2023-09-30T07:55:24;101035.47;;;19.34;59.52
73453;BME280;61687;56.232;43.854;2023-09-30T07:57:49;101034.97;;;19.42;59.73
73453;BME280;61687;56.232;43.854;2023-09-30T08:00:16;101026.13;;;19.51;59.46
73453;BME280;61687;56.232;43.854;2023-09-30T08:02:45;101032.41;;;19.59;59.14
73453;BME280;61687;56.232;43.854;2023-09-30T08:05:11;101030.34;;;19.70;59.49
73453;BME280;61687;56.232;43.854;2023-09-30T08:07:37;101031.44;;;19.77;59.19
73453;BME280;61687;56.232;43.854;2023-09-30T08:10:03;101024.63;;;19.85;59.01
73453;BME280;61687;56.232;43.854;2023-09-30T08:12:30;101023.72;;;19.95;58.83
73453;BME280;61687;56.232;43.854;2023-09-30T08:14:56;101026.78;;;20.05;59.01
73453;BME280;61687;56.232;43.854;2023-09-30T08:17:23;101027.13;;;20.10;58.87
73453;BME280;61687;56.232;43.854;2023-09-30T08:19:49;101021.06;;;20.19;58.86
73453;BME280;61687;56.232;43.854;2023-09-30T08:22:15;101028.88;;;20.32;58.47
73453;BME280;61687;56.232;43.854;2023-09-30T08:24:40;101014.31;;;20.48;58.24
73453;BME280;61687;56.232;43.854;2023-09-30T08:27:06;101014.13;;;20.62;57.48
73453;BME280;61687;56.232;43.854;2023-09-30T08:29:35;101014.69;;;20.77;57.27
73453;BME280;61687;56.232;43.854;2023-09-30T08:32:03;101001.78;;;20.91;56.88
73453;BME280;61687;56.232;43.854;2023-09-30T08:34:30;101009.19;;;21.01;56.52
73453;BME280;61687;56.232;43.854;2023-09-30T08:36:55;101005.53;;;21.04;56.00
73453;BME280;61687;56.232;43.854;2023-09-30T08:39:22;101004.75;;;21.04;55.86
73453;BME280;61687;56.232;43.854;2023-09-30T08:41:50;100995.47;;;21.10;55.57
73453;BME280;61687;56.232;43.854;2023-09-30T08:44:16;100989.34;;;21.19;55.67
73453;BME280;61687;56.232;43.854;2023-09-30T08:46:43;100995.59;;;21.27;55.51
73453;BME280;61687;56.232;43.854;2023-09-30T08:49:11;100984.94;;;21.22;55.26
73453;BME280;61687;56.232;43.854;2023-09-30T08:51:39;100987.69;;;21.25;55.17
73453;BME280;61687;56.232;43.854;2023-09-30T08:54:06;100985.97;;;21.32;55.07
73453;BME280;61687;56.232;43.854;2023-09-30T08:56:32;100981.81;;;21.40;54.73
73453;BME280;61687;56.232;43.854;2023-09-30T08:59:01;100982.94;;;21.46;54.69
73453;BME280;61687;56.232;43.854;2023-09-30T09:01:28;100979.84;;;21.61;54.23
73453;BME280;61687;56.232;43.854;2023-09-30T09:03:56;100977.63;;;21.76;54.25
73453;BME280;61687;56.232;43.854;2023-09-30T09:06:23;100982.53;;;21.88;53.94
73453;BME280;61687;56.232;43.854;2023-09-30T09:08:50;100976.72;;;21.99;53.83
73453;BME280;61687;56.232;43.854;2023-09-30T09:11:16;100978.16;;;22.07;53.53
73453;BME280;61687;56.232;43.854;2023-09-30T09:13:47;100973.53;;;22.17;53.06
73453;BME280;61687;56.232;43.854;2023-09-30T09:16:17;100974.53;;;22.27;52.60
73453;BME280;61687;56.232;43.854;2023-09-30T09:18:46;100981.81;;;22.41;52.22
73453;BME280;61687;56.232;43.854;2023-09-30T09:21:18;100971.50;;;22.38;51.57
73453;BME280;61687;56.232;43.854;2023-09-30T09:23:47;100976.09;;;22.48;52.10
73453;BME280;61687;56.232;43.854;2023-09-30T09:26:30;100962.75;;;22.56;51.33
73453;BME280;61687;56.232;43.854;2023-09-30T09:29:01;100960.38;;;22.54;51.02
73453;BME280;61687;56.232;43.854;2023-09-30T09:31:28;100961.34;;;22.64;50.96
73453;BME280;61687;56.232;43.854;2023-09-30T09:33:55;100961.63;;;22.70;50.46
73453;BME280;61687;56.232;43.854;2023-09-30T09:36:22;100954.53;;;22.82;50.32
73453;BME280;61687;56.232;43.854;2023-09-30T09:39:03;100954.06;;;23.00;50.15
73453;BME280;61687;56.232;43.854;2023-09-30T09:41:29;100955.03;;;23.10;50.24
73453;BME280;61687;56.232;43.854;2023-09-30T09:43:56;100956.44;;;23.18;48.54
73453;BME280;61687;56.232;43.854;2023-09-30T09:46:24;100952.94;;;23.14;48.22
73453;BME280;61687;56.232;43.854;2023-09-30T09:48:52;100947.44;;;23.27;48.65
73453;BME280;61687;56.232;43.854;2023-09-30T09:51:20;100948.72;;;23.39;47.99
73453;BME280;61687;56.232;43.854;2023-09-30T09:53:46;100948.41;;;23.50;47.48
73453;BME280;61687;56.232;43.854;2023-09-30T09:56:15;100950.91;;;23.61;46.77
73453;BME280;61687;56.232;43.854;2023-09-30T09:58:43;100944.56;;;23.73;45.97
73453;BME280;61687;56.232;43.854;2023-09-30T10:01:10;100945.19;;;24.07;45.59
73453;BME280;61687;56.232;43.854;2023-09-30T10:03:39;100938.81;;;24.45;44.98
73453;BME280;61687;56.232;43.854;2023-09-30T10:06:05;100936.34;;;24.73;45.10
73453;BME280;61687;56.232;43.854;2023-09-30T10:08:42;100927.94;;;24.73;44.26
73453;BME280;61687;56.232;43.854;2023-09-30T10:11:17;100922.53;;;24.79;44.31
73453;BME280;61687;56.232;43.854;2023-09-30T10:19:10;100932.56;;;24.41;44.09
73453;BME280;61687;56.232;43.854;2023-09-30T10:21:36;100920.56;;;24.40;44.32
73453;BME280;61687;56.232;43.854;2023-09-30T10:24:29;100916.75;;;24.47;43.80
73453;BME280;61687;56.232;43.854;2023-09-30T10:30:05;100914.81;;;24.57;43.91
73453;BME280;61687;56.232;43.854;2023-09-30T10:40:50;100918.09;;;24.29;43.99
73453;BME280;61687;56.232;43.854;2023-09-30T10:43:29;100909.16;;;24.22;44.07
73453;BME280;61687;56.232;43.854;2023-09-30T10:45:56;100903.31;;;24.16;44.36
73453;BME280;61687;56.232;43.854;2023-09-30T10:50:58;100901.75;;;24.02;44.58
73453;BME280;61687;56.232;43.854;2023-09-30T10:53:26;100897.72;;;24.16;45.10
73453;BME280;61687;56.232;43.854;2023-09-30T10:56:00;100899.72;;;24.28;45.02
73453;BME280;61687;56.232;43.854;2023-09-30T10:58:45;100884.59;;;24.39;45.06
73453;BME280;61687;56.232;43.854;2023-09-30T11:01:13;100886.13;;;24.53;44.80
73453;BME280;61687;56.232;43.854;2023-09-30T11:03:42;100885.22;;;24.56;44.05
73453;BME280;61687;56.232;43.854;2023-09-30T11:06:11;100880.00;;;24.45;44.36
73453;BME280;61687;56.232;43.854;2023-09-30T11:08:45;100889.28;;;24.42;44.02
73453;BME280;61687;56.232;43.854;2023-09-30T11:11:11;100885.38;;;24.26;44.10
73453;BME280;61687;56.232;43.854;2023-09-30T11:13:38;100894.00;;;24.32;44.37
73453;BME280;61687;56.232;43.854;2023-09-30T11:16:04;100888.53;;;24.41;44.55
73453;BME280;61687;56.232;43.854;2023-09-30T11:18:31;100877.31;;;24.28;44.40
73453;BME280;61687;56.232;43.854;2023-09-30T11:21:09;100892.22;;;24.25;44.97
73453;BME280;61687;56.232;43.854;2023-09-30T11:23:36;100875.06;;;23.97;44.63
73453;BME280;61687;56.232;43.854;2023-09-30T11:26:03;100880.47;;;24.05;45.09
73453;BME280;61687;56.232;43.854;2023-09-30T11:28:44;100866.47;;;24.05;45.13
73453;BME280;61687;56.232;43.854;2023-09-30T11:31:12;100867.41;;;24.63;44.31
73453;BME280;61687;56.232;43.854;2023-09-30T11:33:53;100862.81;;;25.49;42.99
73453;BME280;61687;56.232;43.854;2023-09-30T11:36:22;100863.97;;;26.33;40.66
73453;BME280;61687;56.232;43.854;2023-09-30T11:38:49;100859.75;;;26.38;40.61
73453;BME280;61687;56.232;43.854;2023-09-30T11:41:16;100857.56;;;26.23;41.42
73453;BME280;61687;56.232;43.854;2023-09-30T11:44:00;100862.19;;;26.17;41.52
73453;BME280;61687;56.232;43.854;2023-09-30T11:46:27;100859.03;;;26.06;41.42
73453;BME280;61687;56.232;43.854;2023-09-30T11:49:03;100856.59;;;26.17;41.74
73453;BME280;61687;56.232;43.854;2023-09-30T11:51:42;100861.50;;;26.45;41.00
73453;BME280;61687;56.232;43.854;2023-09-30T11:54:14;100856.66;;;26.45;41.10
73453;BME280;61687;56.232;43.854;2023-09-30T11:56:40;100854.94;;;26.38;40.61
73453;BME280;61687;56.232;43.854;2023-09-30T11:59:06;100853.34;;;26.28;40.65
73453;BME280;61687;56.232;43.854;2023-09-30T12:01:31;100846.44;;;26.20;40.50
73453;BME280;61687;56.232;43.854;2023-09-30T12:04:01;100846.38;;;26.10;41.34
73453;BME280;61687;56.232;43.854;2023-09-30T12:06:27;100844.00;;;25.99;40.99
73453;BME280;61687;56.232;43.854;2023-09-30T12:08:52;100848.41;;;26.00;41.18
73453;BME280;61687;56.232;43.854;2023-09-30T12:11:19;100842.97;;;25.75;41.03
73453;BME280;61687;56.232;43.854;2023-09-30T12:13:45;100853.16;;;25.50;41.91
73453;BME280;61687;56.232;43.854;2023-09-30T12:16:14;100848.00;;;25.26;42.13
73453;BME280;61687;56.232;43.854;2023-09-30T12:18:40;100844.72;;;25.05;42.66
73453;BME280;61687;56.232;43.854;2023-09-30T12:21:09;100848.34;;;25.06;42.71
73453;BME280;61687;56.232;43.854;2023-09-30T12:23:39;100836.56;;;25.20;42.66
73453;BME280;61687;56.232;43.854;2023-09-30T12:26:05;100840.69;;;25.51;42.34
73453;BME280;61687;56.232;43.854;2023-09-30T12:28:34;100834.06;;;25.67;42.84
73453;BME280;61687;56.232;43.854;2023-09-30T12:31:01;100830.56;;;25.85;41.86
73453;BME280;61687;56.232;43.854;2023-09-30T12:33:32;100826.81;;;25.88;42.83
73453;BME280;61687;56.232;43.854;2023-09-30T12:35:59;100827.78;;;25.94;41.94
73453;BME280;61687;56.232;43.854;2023-09-30T12:38:25;100813.41;;;26.42;40.89
73453;BME280;61687;56.232;43.854;2023-09-30T12:40:53;100821.09;;;27.07;40.08
73453;BME280;61687;56.232;43.854;2023-09-30T12:43:19;100819.44;;;27.53;38.66
73453;BME280;61687;56.232;43.854;2023-09-30T12:45:46;100809.59;;;27.82;38.59
73453;BME280;61687;56.232;43.854;2023-09-30T12:48:15;100811.00;;;28.20;38.07
73453;BME280;61687;56.232;43.854;2023-09-30T12:50:43;100798.47;;;28.61;37.15
73453;BME280;61687;56.232;43.854;2023-09-30T12:53:09;100807.81;;;29.06;36.76
73453;BME280;61687;56.232;43.854;2023-09-30T12:55:35;100813.84;;;29.44;35.63
73453;BME280;61687;56.232;43.854;2023-09-30T12:58:01;100805.50;;;29.85;34.82
73453;BME280;61687;56.232;43.854;2023-09-30T13:00:27;100797.91;;;30.33;34.13
73453;BME280;61687;56.232;43.854;2023-09-30T13:02:56;100799.69;;;30.72;33.27